sensor_id;sensor_type;location;lat;lon;timestamp;pressure;altitude;pressure_sealevel;temperature;humidity
76464;BME280;65301;46.666;20.110;2022-11-20T00:01:14;100499.47;;;3.14;84.35
76464;BME280;65301;46.666;20.110;2022-11-20T00:04:16;100510.69;;;3.15;84.98
76464;BME280;65301;46.666;20.110;2022-11-20T00:07:18;100511.75;;;3.19;84.24
76464;BME280;65301;46.666;20.110;2022-11-20T00:10:20;100501.03;;;3.15;84.01
76464;BME280;65301;46.666;20.110;2022-11-20T00:13:21;100502.34;;;3.13;84.85
76464;BME280;65301;46.666;20.110;2022-11-20T00:16:25;100512.19;;;2.96;84.34
76464;BME280;65301;46.666;20.110;2022-11-20T00:19:27;100498.63;;;2.94;85.21
76464;BME280;65301;46.666;20.110;2022-11-20T00:22:28;100486.13;;;3.01;84.92
76464;BME280;65301;46.666;20.110;2022-11-20T00:25:30;100483.00;;;3.09;84.69
76464;BME280;65301;46.666;20.110;2022-11-20T00:28:32;100475.16;;;3.04;85.51
76464;BME280;65301;46.666;20.110;2022-11-20T00:31:34;100465.50;;;3.04;84.74
76464;BME280;65301;46.666;20.110;2022-11-20T00:34:36;100466.28;;;3.00;84.62
76464;BME280;65301;46.666;20.110;2022-11-20T00:37:38;100455.84;;;3.00;85.08
76464;BME280;65301;46.666;20.110;2022-11-20T00:40:39;100460.53;;;2.93;85.03
76464;BME280;65301;46.666;20.110;2022-11-20T00:43:41;100456.88;;;2.94;84.75
76464;BME280;65301;46.666;20.110;2022-11-20T00:46:43;100449.53;;;2.86;85.75
76464;BME280;65301;46.666;20.110;2022-11-20T00:49:45;100448.75;;;2.85;85.67
76464;BME280;65301;46.666;20.110;2022-11-20T00:52:46;100451.13;;;2.87;85.93
76464;BME280;65301;46.666;20.110;2022-11-20T00:56:05;100459.19;;;2.90;86.06
76464;BME280;65301;46.666;20.110;2022-11-20T00:59:08;100445.91;;;2.92;85.08
76464;BME280;65301;46.666;20.110;2022-11-20T01:02:10;100443.03;;;2.88;86.00
76464;BME280;65301;46.666;20.110;2022-11-20T01:05:12;100443.81;;;2.89;85.78
76464;BME280;65301;46.666;20.110;2022-11-20T01:08:14;100420.88;;;2.91;85.50
76464;BME280;65301;46.666;20.110;2022-11-20T01:11:19;100413.78;;;2.76;85.60
76464;BME280;65301;46.666;20.110;2022-11-20T01:14:20;100419.22;;;2.64;86.25
76464;BME280;65301;46.666;20.110;2022-11-20T01:17:22;100425.75;;;2.67;85.53
76464;BME280;65301;46.666;20.110;2022-11-20T01:20:24;100415.56;;;2.65;85.53
76464;BME280;65301;46.666;20.110;2022-11-20T01:23:26;100416.88;;;2.68;85.36
76464;BME280;65301;46.666;20.110;2022-11-20T01:26:30;100433.03;;;2.60;85.43
76464;BME280;65301;46.666;20.110;2022-11-20T01:29:32;100431.72;;;2.57;86.04
76464;BME280;65301;46.666;20.110;2022-11-20T01:32:34;100431.19;;;2.65;85.47
76464;BME280;65301;46.666;20.110;2022-11-20T01:35:36;100440.88;;;2.70;85.34
76464;BME280;65301;46.666;20.110;2022-11-20T01:38:38;100422.06;;;2.63;85.35
76464;BME280;65301;46.666;20.110;2022-11-20T01:41:40;100418.91;;;2.56;85.06
76464;BME280;65301;46.666;20.110;2022-11-20T01:45:00;100402.75;;;2.54;85.76
76464;BME280;65301;46.666;20.110;2022-11-20T01:48:02;100388.94;;;2.58;85.54
76464;BME280;65301;46.666;20.110;2022-11-20T01:51:10;100385.28;;;2.54;86.37
76464;BME280;65301;46.666;20.110;2022-11-20T01:54:17;100380.84;;;2.50;86.09
76464;BME280;65301;46.666;20.110;2022-11-20T01:57:22;100393.38;;;2.53;85.83
76464;BME280;65301;46.666;20.110;2022-11-20T02:00:25;100397.03;;;2.57;85.37
76464;BME280;65301;46.666;20.110;2022-11-20T02:03:27;100400.16;;;2.59;86.28
76464;BME280;65301;46.666;20.110;2022-11-20T02:06:32;100397.03;;;2.57;85.49
76464;BME280;65301;46.666;20.110;2022-11-20T02:09:36;100380.38;;;2.68;85.47
76464;BME280;65301;46.666;20.110;2022-11-20T02:12:38;100381.94;;;2.69;85.21
76464;BME280;65301;46.666;20.110;2022-11-20T02:15:59;100362.63;;;2.70;85.32
76464;BME280;65301;46.666;20.110;2022-11-20T02:19:02;100358.22;;;2.70;84.80
76464;BME280;65301;46.666;20.110;2022-11-20T02:22:10;100344.09;;;2.56;85.70
76464;BME280;65301;46.666;20.110;2022-11-20T02:25:13;100346.44;;;2.63;85.31
76464;BME280;65301;46.666;20.110;2022-11-20T02:28:17;100363.16;;;2.67;85.06
76464;BME280;65301;46.666;20.110;2022-11-20T02:31:19;100373.34;;;2.74;85.04
76464;BME280;65301;46.666;20.110;2022-11-20T02:34:21;100368.91;;;2.69;84.31
76464;BME280;65301;46.666;20.110;2022-11-20T02:37:29;100362.91;;;2.74;84.78
76464;BME280;65301;46.666;20.110;2022-11-20T02:40:32;100360.31;;;2.74;85.04
76464;BME280;65301;46.666;20.110;2022-11-20T02:43:33;100345.47;;;2.79;84.64
76464;BME280;65301;46.666;20.110;2022-11-20T02:46:35;100338.97;;;2.82;84.46
76464;BME280;65301;46.666;20.110;2022-11-20T02:49:37;100318.88;;;2.72;84.03
76464;BME280;65301;46.666;20.110;2022-11-20T02:52:38;100318.56;;;2.58;85.21
76464;BME280;65301;46.666;20.110;2022-11-20T02:55:40;100326.38;;;2.58;84.44
76464;BME280;65301;46.666;20.110;2022-11-20T02:58:42;100327.16;;;2.54;85.36
76464;BME280;65301;46.666;20.110;2022-11-20T03:01:44;100324.00;;;2.47;84.75
76464;BME280;65301;46.666;20.110;2022-11-20T03:04:45;100332.13;;;2.55;84.67
76464;BME280;65301;46.666;20.110;2022-11-20T03:07:47;100340.69;;;2.51;85.27
76464;BME280;65301;46.666;20.110;2022-11-20T03:10:49;100334.19;;;2.53;84.47
76464;BME280;65301;46.666;20.110;2022-11-20T03:13:51;100326.59;;;2.47;84.96
76464;BME280;65301;46.666;20.110;2022-11-20T03:16:52;100341.47;;;2.46;84.61
76464;BME280;65301;46.666;20.110;2022-11-20T03:19:54;100351.88;;;2.46;85.15
76464;BME280;65301;46.666;20.110;2022-11-20T03:22:55;100358.94;;;2.51;85.33
76464;BME280;65301;46.666;20.110;2022-11-20T03:26:18;100348.25;;;2.47;84.95
76464;BME280;65301;46.666;20.110;2022-11-20T03:29:20;100344.59;;;2.48;84.80
76464;BME280;65301;46.666;20.110;2022-11-20T03:32:22;100340.91;;;2.39;84.80
76464;BME280;65301;46.666;20.110;2022-11-20T03:35:24;100364.16;;;2.46;84.85
76464;BME280;65301;46.666;20.110;2022-11-20T03:38:29;100378.50;;;2.53;85.30
76464;BME280;65301;46.666;20.110;2022-11-20T03:41:35;100395.22;;;2.57;84.41
76464;BME280;65301;46.666;20.110;2022-11-20T03:44:37;100390.53;;;2.64;84.37
76464;BME280;65301;46.666;20.110;2022-11-20T03:47:38;100398.41;;;2.75;84.13
76464;BME280;65301;46.666;20.110;2022-11-20T03:50:40;100386.94;;;2.81;84.00
76464;BME280;65301;46.666;20.110;2022-11-20T03:53:43;100367.63;;;2.77;83.76
76464;BME280;65301;46.666;20.110;2022-11-20T03:56:45;100370.47;;;2.70;83.89
76464;BME280;65301;46.666;20.110;2022-11-20T03:59:47;100369.91;;;2.63;84.23
76464;BME280;65301;46.666;20.110;2022-11-20T04:02:49;100381.16;;;2.68;83.64
76464;BME280;65301;46.666;20.110;2022-11-20T04:05:50;100386.38;;;2.74;84.38
76464;BME280;65301;46.666;20.110;2022-11-20T04:08:58;100376.25;;;2.77;84.19
76464;BME280;65301;46.666;20.110;2022-11-20T04:12:00;100375.69;;;2.75;84.17
76464;BME280;65301;46.666;20.110;2022-11-20T04:15:01;100379.09;;;2.76;84.74
76464;BME280;65301;46.666;20.110;2022-11-20T04:18:03;100373.09;;;2.75;84.09
76464;BME280;65301;46.666;20.110;2022-11-20T04:21:06;100365.25;;;2.65;83.39
76464;BME280;65301;46.666;20.110;2022-11-20T04:24:08;100355.56;;;2.60;83.83
76464;BME280;65301;46.666;20.110;2022-11-20T04:27:09;100350.59;;;2.54;84.19
76464;BME280;65301;46.666;20.110;2022-11-20T04:30:11;100343.28;;;2.51;84.13
76464;BME280;65301;46.666;20.110;2022-11-20T04:33:13;100342.75;;;2.44;84.40
76464;BME280;65301;46.666;20.110;2022-11-20T04:36:17;100323.19;;;2.41;84.13
76464;BME280;65301;46.666;20.110;2022-11-20T04:39:19;100317.72;;;2.38;85.33
76464;BME280;65301;46.666;20.110;2022-11-20T04:42:21;100311.44;;;2.39;85.41
76464;BME280;65301;46.666;20.110;2022-11-20T04:45:31;100319.31;;;2.49;85.58
76464;BME280;65301;46.666;20.110;2022-11-20T04:48:34;100330.53;;;2.54;84.96
76464;BME280;65301;46.666;20.110;2022-11-20T04:51:36;100322.44;;;2.56;85.15
76464;BME280;65301;46.666;20.110;2022-11-20T04:54:37;100299.78;;;2.51;85.15
76464;BME280;65301;46.666;20.110;2022-11-20T04:57:39;100300.28;;;2.48;84.89
76464;BME280;65301;46.666;20.110;2022-11-20T05:00:41;100308.38;;;2.52;84.88
76464;BME280;65301;46.666;20.110;2022-11-20T05:03:43;100313.31;;;2.53;85.03
76464;BME280;65301;46.666;20.110;2022-11-20T05:06:45;100327.94;;;2.59;85.01
76464;BME280;65301;46.666;20.110;2022-11-20T05:09:47;100327.19;;;2.64;84.70
76464;BME280;65301;46.666;20.110;2022-11-20T05:12:49;100323.78;;;2.68;84.91
76464;BME280;65301;46.666;20.110;2022-11-20T05:15:50;100322.47;;;2.61;84.85
76464;BME280;65301;46.666;20.110;2022-11-20T05:18:53;100305.00;;;2.61;84.56
76464;BME280;65301;46.666;20.110;2022-11-20T05:21:56;100295.38;;;2.62;84.89
76464;BME280;65301;46.666;20.110;2022-11-20T05:24:57;100282.56;;;2.45;85.54
76464;BME280;65301;46.666;20.110;2022-11-20T05:27:59;100272.91;;;2.51;85.20
76464;BME280;65301;46.666;20.110;2022-11-20T05:31:09;100280.47;;;2.47;85.12
76464;BME280;65301;46.666;20.110;2022-11-20T05:34:11;100276.06;;;2.53;85.20
76464;BME280;65301;46.666;20.110;2022-11-20T05:37:12;100289.09;;;2.48;85.11
76464;BME280;65301;46.666;20.110;2022-11-20T05:40:14;100294.84;;;2.55;84.49
76464;BME280;65301;46.666;20.110;2022-11-20T05:43:15;100296.41;;;2.61;84.16
76464;BME280;65301;46.666;20.110;2022-11-20T05:46:19;100281.28;;;2.53;84.30
76464;BME280;65301;46.666;20.110;2022-11-20T05:49:29;100283.59;;;2.49;84.46
76464;BME280;65301;46.666;20.110;2022-11-20T05:52:30;100285.72;;;2.57;84.01
76464;BME280;65301;46.666;20.110;2022-11-20T05:55:33;100275.81;;;2.59;84.63
76464;BME280;65301;46.666;20.110;2022-11-20T05:58:35;100280.75;;;2.61;84.62
76464;BME280;65301;46.666;20.110;2022-11-20T06:01:37;100286.25;;;2.69;84.44
76464;BME280;65301;46.666;20.110;2022-11-20T06:04:39;100289.38;;;2.72;84.02
76464;BME280;65301;46.666;20.110;2022-11-20T06:07:41;100307.16;;;2.80;84.38
76464;BME280;65301;46.666;20.110;2022-11-20T06:10:42;100320.44;;;2.88;84.16
76464;BME280;65301;46.666;20.110;2022-11-20T06:13:45;100322.25;;;2.88;83.48
76464;BME280;65301;46.666;20.110;2022-11-20T06:16:47;100337.66;;;2.84;83.79
76464;BME280;65301;46.666;20.110;2022-11-20T06:19:49;100334.78;;;2.86;83.61
76464;BME280;65301;46.666;20.110;2022-11-20T06:22:50;100349.66;;;2.90;83.44
76464;BME280;65301;46.666;20.110;2022-11-20T06:25:52;100348.09;;;2.84;82.88
76464;BME280;65301;46.666;20.110;2022-11-20T06:28:54;100358.53;;;2.89;83.22
76464;BME280;65301;46.666;20.110;2022-11-20T06:31:57;100351.75;;;2.93;82.75
76464;BME280;65301;46.666;20.110;2022-11-20T06:34:59;100346.03;;;2.96;83.11
76464;BME280;65301;46.666;20.110;2022-11-20T06:38:00;100350.47;;;3.01;83.16
76464;BME280;65301;46.666;20.110;2022-11-20T06:41:03;100338.72;;;2.98;83.19
76464;BME280;65301;46.666;20.110;2022-11-20T06:44:05;100328.81;;;3.00;82.94
76464;BME280;65301;46.666;20.110;2022-11-20T06:47:07;100321.25;;;2.99;83.24
76464;BME280;65301;46.666;20.110;2022-11-20T06:50:09;100321.00;;;3.15;82.90
76464;BME280;65301;46.666;20.110;2022-11-20T06:53:10;100309.75;;;3.10;83.12
76464;BME280;65301;46.666;20.110;2022-11-20T06:56:12;100312.09;;;3.16;82.73
76464;BME280;65301;46.666;20.110;2022-11-20T06:59:14;100315.78;;;3.15;82.83
76464;BME280;65301;46.666;20.110;2022-11-20T07:02:15;100324.13;;;3.27;82.32
76464;BME280;65301;46.666;20.110;2022-11-20T07:05:17;100328.81;;;3.35;81.73
76464;BME280;65301;46.666;20.110;2022-11-20T07:08:19;100339.75;;;3.37;81.50
76464;BME280;65301;46.666;20.110;2022-11-20T07:11:21;100347.06;;;3.41;81.81
76464;BME280;65301;46.666;20.110;2022-11-20T07:14:22;100339.00;;;3.42;81.73
76464;BME280;65301;46.666;20.110;2022-11-20T07:17:24;100335.59;;;3.47;81.47
76464;BME280;65301;46.666;20.110;2022-11-20T07:20:26;100325.94;;;3.42;81.70
76464;BME280;65301;46.666;20.110;2022-11-20T07:23:28;100337.69;;;3.40;81.66
76464;BME280;65301;46.666;20.110;2022-11-20T07:26:29;100347.88;;;3.41;81.58
76464;BME280;65301;46.666;20.110;2022-11-20T07:29:31;100379.44;;;3.55;81.54
76464;BME280;65301;46.666;20.110;2022-11-20T07:32:33;100388.84;;;3.66;81.31
76464;BME280;65301;46.666;20.110;2022-11-20T07:35:34;100380.75;;;3.67;80.73
76464;BME280;65301;46.666;20.110;2022-11-20T07:38:37;100382.06;;;3.70;80.63
76464;BME280;65301;46.666;20.110;2022-11-20T07:41:39;100375.53;;;3.57;80.48
76464;BME280;65301;46.666;20.110;2022-11-20T07:44:41;100383.63;;;3.71;80.27
76464;BME280;65301;46.666;20.110;2022-11-20T07:47:43;100387.00;;;3.81;80.01
76464;BME280;65301;46.666;20.110;2022-11-20T07:50:45;100397.72;;;3.80;79.55
76464;BME280;65301;46.666;20.110;2022-11-20T07:53:47;100395.63;;;3.82;78.98
76464;BME280;65301;46.666;20.110;2022-11-20T07:56:49;100397.94;;;3.88;79.83
76464;BME280;65301;46.666;20.110;2022-11-20T07:59:50;100403.69;;;3.95;79.63
76464;BME280;65301;46.666;20.110;2022-11-20T08:02:52;100415.19;;;4.10;79.00
76464;BME280;65301;46.666;20.110;2022-11-20T08:05:54;100410.97;;;4.19;78.96
76464;BME280;65301;46.666;20.110;2022-11-20T08:08:56;100405.97;;;4.22;77.59
76464;BME280;65301;46.666;20.110;2022-11-20T08:11:57;100422.16;;;4.29;78.95
76464;BME280;65301;46.666;20.110;2022-11-20T08:15:18;100418.22;;;4.37;78.24
76464;BME280;65301;46.666;20.110;2022-11-20T08:18:19;100424.50;;;4.46;77.96
76464;BME280;65301;46.666;20.110;2022-11-20T08:21:32;100406.91;;;4.56;78.38
76464;BME280;65301;46.666;20.110;2022-11-20T08:24:38;100408.75;;;4.56;77.35
76464;BME280;65301;46.666;20.110;2022-11-20T08:27:40;100418.66;;;4.69;77.08
76464;BME280;65301;46.666;20.110;2022-11-20T08:30:42;100437.47;;;4.71;76.46
76464;BME280;65301;46.666;20.110;2022-11-20T08:33:43;100444.25;;;4.77;77.76
76464;BME280;65301;46.666;20.110;2022-11-20T08:36:45;100441.06;;;4.85;76.76
76464;BME280;65301;46.666;20.110;2022-11-20T08:39:47;100431.38;;;4.86;76.10
76464;BME280;65301;46.666;20.110;2022-11-20T08:42:49;100438.16;;;4.92;75.90
76464;BME280;65301;46.666;20.110;2022-11-20T08:45:51;100439.72;;;4.93;76.43
76464;BME280;65301;46.666;20.110;2022-11-20T08:48:53;100436.78;;;5.04;76.62
76464;BME280;65301;46.666;20.110;2022-11-20T08:51:55;100424.97;;;5.07;75.42
76464;BME280;65301;46.666;20.110;2022-11-20T08:54:56;100415.84;;;5.04;75.99
76464;BME280;65301;46.666;20.110;2022-11-20T08:57:58;100401.16;;;5.08;75.34
76464;BME280;65301;46.666;20.110;2022-11-20T09:01:04;100395.47;;;4.96;74.94
76464;BME280;65301;46.666;20.110;2022-11-20T09:04:07;100417.91;;;5.07;75.90
76464;BME280;65301;46.666;20.110;2022-11-20T09:07:08;100419.75;;;5.07;75.47
76464;BME280;65301;46.666;20.110;2022-11-20T09:10:10;100397.72;;;5.18;75.25
76464;BME280;65301;46.666;20.110;2022-11-20T09:13:28;100413.88;;;5.25;75.03
76464;BME280;65301;46.666;20.110;2022-11-20T09:16:30;100420.09;;;5.34;75.96
76464;BME280;65301;46.666;20.110;2022-11-20T09:19:31;100412.06;;;5.59;73.95
76464;BME280;65301;46.666;20.110;2022-11-20T09:22:54;100429.38;;;5.55;74.27
76464;BME280;65301;46.666;20.110;2022-11-20T09:25:55;100439.59;;;5.57;74.06
76464;BME280;65301;46.666;20.110;2022-11-20T09:29:01;100456.81;;;5.63;73.94
76464;BME280;65301;46.666;20.110;2022-11-20T09:32:03;100458.88;;;5.71;74.44
76464;BME280;65301;46.666;20.110;2022-11-20T09:35:05;100465.91;;;5.75;74.12
76464;BME280;65301;46.666;20.110;2022-11-20T09:38:07;100471.69;;;5.72;74.54
76464;BME280;65301;46.666;20.110;2022-11-20T09:41:28;100472.78;;;5.66;73.50
76464;BME280;65301;46.666;20.110;2022-11-20T09:51:16;100458.53;;;5.77;74.62
76464;BME280;65301;46.666;20.110;2022-11-20T09:54:32;100459.75;;;5.95;73.96
76464;BME280;65301;46.666;20.110;2022-11-20T09:57:37;100479.88;;;5.99;74.37
76464;BME280;65301;46.666;20.110;2022-11-20T10:00:40;100475.00;;;6.17;72.90
76464;BME280;65301;46.666;20.110;2022-11-20T10:04:08;100450.84;;;6.20;73.39
76464;BME280;65301;46.666;20.110;2022-11-20T10:07:16;100448.56;;;6.37;73.38
76464;BME280;65301;46.666;20.110;2022-11-20T10:10:42;100446.56;;;6.52;72.59
76464;BME280;65301;46.666;20.110;2022-11-20T10:20:45;100443.03;;;6.86;70.53
76464;BME280;65301;46.666;20.110;2022-11-20T10:24:08;100440.03;;;6.92;70.88
76464;BME280;65301;46.666;20.110;2022-11-20T10:30:27;100451.31;;;6.93;71.13
76464;BME280;65301;46.666;20.110;2022-11-20T10:33:36;100445.09;;;6.89;71.32
76464;BME280;65301;46.666;20.110;2022-11-20T10:37:11;100452.19;;;7.07;70.86
76464;BME280;65301;46.666;20.110;2022-11-20T10:40:22;100412.66;;;7.17;70.43
76464;BME280;65301;46.666;20.110;2022-11-20T10:43:35;100422.28;;;7.59;70.21
76464;BME280;65301;46.666;20.110;2022-11-20T10:46:43;100429.31;;;7.77;70.67
76464;BME280;65301;46.666;20.110;2022-11-20T10:49:53;100427.88;;;7.71;70.51
76464;BME280;65301;46.666;20.110;2022-11-20T10:56:46;100426.03;;;7.71;69.02
76464;BME280;65301;46.666;20.110;2022-11-20T11:02:55;100408.69;;;7.70;68.27
76464;BME280;65301;46.666;20.110;2022-11-20T11:06:22;100410.91;;;7.63;68.61
76464;BME280;65301;46.666;20.110;2022-11-20T11:09:34;100407.44;;;7.49;70.08
76464;BME280;65301;46.666;20.110;2022-11-20T11:12:43;100419.88;;;7.44;71.51
76464;BME280;65301;46.666;20.110;2022-11-20T11:15:46;100412.50;;;7.46;70.66
76464;BME280;65301;46.666;20.110;2022-11-20T11:18:47;100423.84;;;7.41;69.88
76464;BME280;65301;46.666;20.110;2022-11-20T11:21:52;100441.28;;;7.37;70.56
76464;BME280;65301;46.666;20.110;2022-11-20T11:24:56;100440.13;;;7.24;72.08
76464;BME280;65301;46.666;20.110;2022-11-20T11:28:02;100450.72;;;7.19;72.40
76464;BME280;65301;46.666;20.110;2022-11-20T11:31:04;100461.94;;;7.25;72.29
76464;BME280;65301;46.666;20.110;2022-11-20T11:34:07;100456.25;;;7.36;72.43
76464;BME280;65301;46.666;20.110;2022-11-20T11:37:19;100441.13;;;7.47;72.14
76464;BME280;65301;46.666;20.110;2022-11-20T11:40:24;100447.28;;;7.56;72.15
76464;BME280;65301;46.666;20.110;2022-11-20T11:43:30;100438.03;;;7.59;71.91
76464;BME280;65301;46.666;20.110;2022-11-20T11:46:56;100437.03;;;7.73;71.53
76464;BME280;65301;46.666;20.110;2022-11-20T11:53:16;100432.44;;;7.79;70.18
76464;BME280;65301;46.666;20.110;2022-11-20T11:56:19;100436.56;;;7.85;70.40
76464;BME280;65301;46.666;20.110;2022-11-20T11:59:28;100433.16;;;7.98;70.21
76464;BME280;65301;46.666;20.110;2022-11-20T12:02:40;100417.69;;;8.10;70.10
76464;BME280;65301;46.666;20.110;2022-11-20T12:05:47;100428.81;;;8.21;69.63
76464;BME280;65301;46.666;20.110;2022-11-20T12:08:59;100443.91;;;8.15;70.63
76464;BME280;65301;46.666;20.110;2022-11-20T12:12:09;100450.44;;;8.18;70.04
76464;BME280;65301;46.666;20.110;2022-11-20T12:15:20;100448.13;;;8.16;69.19
76464;BME280;65301;46.666;20.110;2022-11-20T12:18:24;100426.78;;;8.18;67.58
76464;BME280;65301;46.666;20.110;2022-11-20T12:21:32;100426.38;;;8.11;67.99
76464;BME280;65301;46.666;20.110;2022-11-20T12:31:22;100452.56;;;8.02;71.37
76464;BME280;65301;46.666;20.110;2022-11-20T12:41:40;100429.69;;;8.02;70.90
76464;BME280;65301;46.666;20.110;2022-11-20T12:48:50;100420.53;;;8.00;69.97
76464;BME280;65301;46.666;20.110;2022-11-20T12:58:22;100408.63;;;7.89;70.49
76464;BME280;65301;46.666;20.110;2022-11-20T13:05:18;100411.63;;;7.96;70.33
76464;BME280;65301;46.666;20.110;2022-11-20T13:08:24;100416.25;;;8.04;70.82
76464;BME280;65301;46.666;20.110;2022-11-20T13:11:43;100403.41;;;8.02;69.73
76464;BME280;65301;46.666;20.110;2022-11-20T13:18:08;100406.28;;;8.01;70.36
76464;BME280;65301;46.666;20.110;2022-11-20T13:21:16;100407.38;;;8.00;70.85
76464;BME280;65301;46.666;20.110;2022-11-20T13:27:22;100396.16;;;7.94;70.57
76464;BME280;65301;46.666;20.110;2022-11-20T13:30:26;100386.81;;;8.02;70.10
76464;BME280;65301;46.666;20.110;2022-11-20T13:33:30;100387.97;;;7.96;70.60
76464;BME280;65301;46.666;20.110;2022-11-20T13:36:33;100406.78;;;7.89;70.73
76464;BME280;65301;46.666;20.110;2022-11-20T13:39:37;100420.22;;;7.88;70.95
76464;BME280;65301;46.666;20.110;2022-11-20T13:42:44;100420.00;;;7.84;71.48
76464;BME280;65301;46.666;20.110;2022-11-20T13:46:06;100429.31;;;7.77;73.02
76464;BME280;65301;46.666;20.110;2022-11-20T13:49:16;100413.19;;;7.83;71.64
76464;BME280;65301;46.666;20.110;2022-11-20T13:55:54;100438.50;;;7.79;72.40
76464;BME280;65301;46.666;20.110;2022-11-20T13:59:23;100438.88;;;7.73;73.04
76464;BME280;65301;46.666;20.110;2022-11-20T14:02:30;100443.63;;;7.71;73.90
76464;BME280;65301;46.666;20.110;2022-11-20T14:05:40;100445.78;;;7.69;73.55
76464;BME280;65301;46.666;20.110;2022-11-20T14:08:51;100428.72;;;7.66;72.41
76464;BME280;65301;46.666;20.110;2022-11-20T14:11:54;100423.81;;;7.60;73.94
76464;BME280;65301;46.666;20.110;2022-11-20T14:14:56;100429.44;;;7.53;74.97
76464;BME280;65301;46.666;20.110;2022-11-20T14:17:59;100443.75;;;7.47;74.31
76464;BME280;65301;46.666;20.110;2022-11-20T14:21:24;100444.59;;;7.43;74.96
76464;BME280;65301;46.666;20.110;2022-11-20T14:24:26;100434.84;;;7.43;73.73
76464;BME280;65301;46.666;20.110;2022-11-20T14:27:29;100446.94;;;7.44;74.77
76464;BME280;65301;46.666;20.110;2022-11-20T14:30:42;100459.28;;;7.44;74.21
76464;BME280;65301;46.666;20.110;2022-11-20T14:33:46;100473.34;;;7.53;74.42
76464;BME280;65301;46.666;20.110;2022-11-20T14:36:52;100461.63;;;7.45;74.52
76464;BME280;65301;46.666;20.110;2022-11-20T14:39:56;100448.06;;;7.38;74.87
76464;BME280;65301;46.666;20.110;2022-11-20T14:43:00;100438.84;;;7.40;74.95
76464;BME280;65301;46.666;20.110;2022-11-20T14:46:07;100445.97;;;7.40;75.16
76464;BME280;65301;46.666;20.110;2022-11-20T14:49:11;100442.41;;;7.31;76.36
76464;BME280;65301;46.666;20.110;2022-11-20T14:52:16;100444.22;;;7.30;76.08
76464;BME280;65301;46.666;20.110;2022-11-20T14:55:33;100465.19;;;7.35;75.70
76464;BME280;65301;46.666;20.110;2022-11-20T14:58:35;100455.41;;;7.22;75.80
76464;BME280;65301;46.666;20.110;2022-11-20T15:01:37;100446.19;;;7.25;75.93
76464;BME280;65301;46.666;20.110;2022-11-20T15:04:51;100447.22;;;7.24;76.39
76464;BME280;65301;46.666;20.110;2022-11-20T15:08:08;100444.41;;;7.20;75.37
76464;BME280;65301;46.666;20.110;2022-11-20T15:11:19;100432.81;;;7.21;75.62
76464;BME280;65301;46.666;20.110;2022-11-20T15:14:21;100436.72;;;7.24;76.49
76464;BME280;65301;46.666;20.110;2022-11-20T15:17:23;100422.88;;;7.18;75.94
76464;BME280;65301;46.666;20.110;2022-11-20T15:20:28;100437.09;;;7.17;76.98
76464;BME280;65301;46.666;20.110;2022-11-20T15:23:31;100438.50;;;7.10;77.53
76464;BME280;65301;46.666;20.110;2022-11-20T15:26:34;100416.16;;;7.12;77.18
76464;BME280;65301;46.666;20.110;2022-11-20T15:29:36;100388.19;;;7.03;77.97
76464;BME280;65301;46.666;20.110;2022-11-20T15:32:42;100374.94;;;6.94;77.90
76464;BME280;65301;46.666;20.110;2022-11-20T15:35:44;100390.94;;;6.93;77.92
76464;BME280;65301;46.666;20.110;2022-11-20T15:38:46;100406.75;;;6.88;78.17
76464;BME280;65301;46.666;20.110;2022-11-20T15:41:48;100418.41;;;6.82;79.05
76464;BME280;65301;46.666;20.110;2022-11-20T15:44:50;100419.31;;;6.72;80.00
76464;BME280;65301;46.666;20.110;2022-11-20T15:47:51;100426.16;;;6.68;79.41
76464;BME280;65301;46.666;20.110;2022-11-20T15:51:05;100426.59;;;6.75;79.15
76464;BME280;65301;46.666;20.110;2022-11-20T15:54:11;100434.41;;;6.80;79.41
76464;BME280;65301;46.666;20.110;2022-11-20T15:57:13;100429.97;;;6.81;79.27
76464;BME280;65301;46.666;20.110;2022-11-20T16:00:16;100436.00;;;6.81;78.92
76464;BME280;65301;46.666;20.110;2022-11-20T16:03:24;100422.88;;;6.81;78.97
76464;BME280;65301;46.666;20.110;2022-11-20T16:06:26;100408.47;;;6.79;79.18
76464;BME280;65301;46.666;20.110;2022-11-20T16:09:28;100410.78;;;6.80;79.44
76464;BME280;65301;46.666;20.110;2022-11-20T16:12:30;100421.16;;;6.71;78.51
76464;BME280;65301;46.666;20.110;2022-11-20T16:15:53;100422.00;;;6.67;79.80
76464;BME280;65301;46.666;20.110;2022-11-20T16:18:58;100427.69;;;6.74;79.75
76464;BME280;65301;46.666;20.110;2022-11-20T16:22:00;100405.91;;;6.73;78.96
76464;BME280;65301;46.666;20.110;2022-11-20T16:25:05;100412.72;;;6.75;79.27
76464;BME280;65301;46.666;20.110;2022-11-20T16:28:07;100418.25;;;6.73;79.37
76464;BME280;65301;46.666;20.110;2022-11-20T16:31:16;100403.06;;;6.70;79.84
76464;BME280;65301;46.666;20.110;2022-11-20T16:34:18;100397.59;;;6.66;79.35
76464;BME280;65301;46.666;20.110;2022-11-20T16:37:20;100382.69;;;6.62;80.56
76464;BME280;65301;46.666;20.110;2022-11-20T16:40:23;100373.31;;;6.56;79.70
76464;BME280;65301;46.666;20.110;2022-11-20T16:43:25;100371.41;;;6.61;79.99
76464;BME280;65301;46.666;20.110;2022-11-20T16:46:31;100359.94;;;6.57;79.93
76464;BME280;65301;46.666;20.110;2022-11-20T16:49:33;100371.22;;;6.58;79.89
76464;BME280;65301;46.666;20.110;2022-11-20T16:52:35;100372.38;;;6.47;80.78
76464;BME280;65301;46.666;20.110;2022-11-20T16:55:37;100372.13;;;6.48;80.96
76464;BME280;65301;46.666;20.110;2022-11-20T16:58:38;100374.66;;;6.53;80.38
76464;BME280;65301;46.666;20.110;2022-11-20T17:01:40;100390.41;;;6.53;79.87
76464;BME280;65301;46.666;20.110;2022-11-20T17:04:44;100394.72;;;6.44;80.43
76464;BME280;65301;46.666;20.110;2022-11-20T17:07:46;100403.09;;;6.46;80.46
76464;BME280;65301;46.666;20.110;2022-11-20T17:10:48;100411.25;;;6.45;80.43